Time;durP1;ratioP1;P1;durP2;ratioP2;P2;SDS_P1;SDS_P2;PMS_P1;PMS_P2;Temp;Humidity;BMP_temperature;BMP_pressure;BME280_temperature;BME280_humidity;BME280_pressure;Samples;Min_cycle;Max_cycle;Signal;HPM_P1;HPM_P2
2021/05/31 00:00:35;;;;;;;7.63;5.72;;;;;;;10.01;77.01;93911.50;5089974;28;20566;-75
2021/05/31 00:03:01;;;;;;;7.25;5.03;;;;;;;10.00;75.97;93913.38;5097193;28;20024;-75
2021/05/31 00:05:26;;;;;;;6.68;4.70;;;;;;;9.94;76.22;93905.84;5096883;28;20475;-75
2021/05/31 00:07:54;;;;;;;7.50;5.10;;;;;;;9.92;76.51;93905.38;5089994;28;20044;-75
2021/05/31 00:10:20;;;;;;;6.05;4.38;;;;;;;9.97;76.24;93905.22;5089988;28;20467;-75
2021/05/31 00:12:45;;;;;;;8.18;5.30;;;;;;;9.87;75.82;93905.50;5088550;28;20026;-75
2021/05/31 00:15:11;;;;;;;7.68;5.57;;;;;;;9.90;76.14;93904.91;5088597;28;20111;-75
2021/05/31 00:17:36;;;;;;;7.05;5.55;;;;;;;9.82;76.18;93906.41;5097142;28;20024;-75
2021/05/31 00:20:05;;;;;;;6.90;4.88;;;;;;;9.80;75.98;93896.06;5090109;28;20020;-75
2021/05/31 00:22:30;;;;;;;10.82;5.90;;;;;;;9.73;76.96;93900.25;5088707;28;20020;-75
2021/05/31 00:24:56;;;;;;;11.63;6.00;;;;;;;9.72;76.99;93899.47;5103914;28;20027;-75
2021/05/31 00:27:21;;;;;;;9.55;5.53;;;;;;;9.71;76.80;93897.94;5100346;28;20059;-75
2021/05/31 00:29:47;;;;;;;9.85;6.63;;;;;;;9.68;77.35;93898.53;5110318;28;20024;-75
2021/05/31 00:32:12;;;;;;;9.45;5.35;;;;;;;9.61;77.42;93898.97;5105382;28;20036;-75
2021/05/31 00:34:38;;;;;;;8.90;6.13;;;;;;;9.60;77.06;93885.97;5092790;28;20035;-75
2021/05/31 00:37:04;;;;;;;7.43;5.28;;;;;;;9.57;77.31;93897.22;5089696;28;20028;-75
2021/05/31 00:39:30;;;;;;;8.00;5.35;;;;;;;9.56;77.42;93885.00;5100618;28;20024;-75
2021/05/31 00:41:56;;;;;;;7.47;5.30;;;;;;;9.59;77.36;93884.41;5108700;28;20031;-75
2021/05/31 00:44:23;;;;;;;8.73;6.53;;;;;;;9.63;77.24;93885.38;5108886;28;20031;-74
2021/05/31 00:46:50;;;;;;;8.90;5.72;;;;;;;9.58;77.24;93888.16;5089968;28;20026;-74
2021/05/31 00:49:22;;;;;;;8.90;6.22;;;;;;;9.60;77.52;93888.63;5103342;28;20059;-75
2021/05/31 00:51:48;;;;;;;10.30;6.32;;;;;;;9.59;76.99;93881.75;5112394;28;20036;-75
2021/05/31 00:54:14;;;;;;;10.57;6.47;;;;;;;9.51;76.93;93877.94;5097162;28;20487;-75
2021/05/31 00:56:41;;;;;;;9.40;6.10;;;;;;;9.50;77.06;93875.59;5091867;28;20024;-75
2021/05/31 00:59:09;;;;;;;8.38;6.10;;;;;;;9.48;77.27;93880.41;5103154;28;20023;-75
2021/05/31 01:01:35;;;;;;;9.23;6.43;;;;;;;9.42;78.03;93883.22;5092054;28;20023;-74
2021/05/31 01:04:01;;;;;;;8.20;6.28;;;;;;;9.42;77.73;93879.75;5107262;28;20023;-75
2021/05/31 01:06:31;;;;;;;12.68;5.45;;;;;;;9.45;77.47;93868.53;5108372;28;20489;-75
2021/05/31 01:09:14;;;;;;;6.82;5.82;;;;;;;9.43;77.63;93876.03;5091666;28;20052;-75
2021/05/31 01:11:46;;;;;;;8.30;5.63;;;;;;;9.43;77.63;93868.03;5091694;28;20410;-75
2021/05/31 01:14:24;;;;;;;8.27;5.97;;;;;;;9.40;77.46;93864.13;5091519;28;20028;-75
2021/05/31 01:17:00;;;;;;;10.70;6.20;;;;;;;9.40;78.11;93869.44;5091736;28;20124;-76
2021/05/31 01:19:50;;;;;;;9.93;6.03;;;;;;;9.34;77.40;93861.88;5091783;28;20040;-75
2021/05/31 01:22:18;;;;;;;9.18;5.95;;;;;;;9.36;78.56;93859.69;5092669;28;20044;-75
2021/05/31 01:24:49;;;;;;;6.90;5.68;;;;;;;9.36;77.80;93849.88;5092803;28;20016;-75
2021/05/31 01:27:22;;;;;;;7.97;5.93;;;;;;;9.31;78.26;93852.63;5091579;28;20042;-75
2021/05/31 01:29:56;;;;;;;9.13;6.45;;;;;;;9.29;78.61;93857.47;5098234;28;20038;-75
2021/05/31 01:32:25;;;;;;;8.85;5.93;;;;;;;9.33;77.70;93857.66;5109097;28;20089;-75
2021/05/31 01:34:53;;;;;;;7.65;6.00;;;;;;;9.31;77.81;93851.84;5106322;27;20081;-75
2021/05/31 01:37:22;;;;;;;8.57;6.25;;;;;;;9.32;77.33;93856.06;5109834;28;20027;-75
2021/05/31 01:39:52;;;;;;;17.40;5.97;;;;;;;9.34;77.67;93852.03;5097350;28;20023;-75
2021/05/31 01:42:18;;;;;;;10.75;5.60;;;;;;;9.36;77.25;93855.19;5096603;28;20031;-75
2021/05/31 01:44:45;;;;;;;10.57;5.70;;;;;;;9.36;76.93;93846.41;5091193;28;20054;-75
2021/05/31 01:47:12;;;;;;;7.80;5.20;;;;;;;9.36;76.94;93849.88;5092466;28;20028;-74
2021/05/31 01:49:38;;;;;;;8.07;5.32;;;;;;;9.37;75.88;93845.31;5096125;28;20447;-75
2021/05/31 01:52:06;;;;;;;8.98;5.25;;;;;;;9.38;76.56;93842.38;5111220;28;20015;-75
2021/05/31 01:54:31;;;;;;;9.43;5.40;;;;;;;9.42;76.41;93838.00;5099807;28;20032;-74
2021/05/31 01:56:57;;;;;;;6.40;5.18;;;;;;;9.44;76.45;93841.13;5105608;28;20029;-74
2021/05/31 01:59:23;;;;;;;8.02;5.45;;;;;;;9.49;75.56;93831.47;5111127;28;20486;-74
2021/05/31 02:01:52;;;;;;;7.75;5.38;;;;;;;9.54;75.64;93833.97;5098048;28;20062;-74
2021/05/31 02:04:17;;;;;;;6.45;4.93;;;;;;;9.58;75.77;93827.72;5090770;28;20043;-75
2021/05/31 02:06:43;;;;;;;6.28;4.38;;;;;;;9.65;75.11;93829.97;5112253;28;20470;-75
2021/05/31 02:09:08;;;;;;;8.85;5.20;;;;;;;9.63;74.90;93832.91;5112059;28;20040;-74
2021/05/31 02:11:41;;;;;;;8.07;5.68;;;;;;;9.58;74.73;93826.94;5110609;28;20023;-74
2021/05/31 02:14:33;;;;;;;7.90;5.15;;;;;;;9.58;75.25;93827.72;5110769;28;20089;-74
2021/05/31 02:17:16;;;;;;;6.75;4.93;;;;;;;9.63;75.46;93819.63;5110919;28;20470;-74
2021/05/31 02:19:44;;;;;;;7.22;4.75;;;;;;;9.66;74.86;93825.41;5097862;28;20028;-74
2021/05/31 02:22:11;;;;;;;7.15;5.45;;;;;;;9.71;74.85;93825.25;5093120;28;20038;-75
2021/05/31 02:24:38;;;;;;;7.18;5.75;;;;;;;9.71;74.72;93817.28;5107209;28;20034;-74
2021/05/31 02:27:05;;;;;;;7.45;4.65;;;;;;;9.78;74.77;93817.63;5090313;28;20024;-75
2021/05/31 02:29:31;;;;;;;7.10;4.75;;;;;;;9.72;74.47;93814.31;5098708;28;20059;-74
2021/05/31 02:31:57;;;;;;;6.35;4.57;;;;;;;9.77;74.44;93821.38;5110439;28;20034;-75
2021/05/31 02:34:22;;;;;;;6.93;4.90;;;;;;;9.73;73.86;93821.22;5110388;28;20031;-75
2021/05/31 02:36:49;;;;;;;7.13;5.05;;;;;;;9.67;74.37;93816.31;5110201;28;20058;-74
2021/05/31 02:39:16;;;;;;;10.77;4.72;;;;;;;9.66;74.20;93810.22;5110310;28;20118;-75
2021/05/31 02:41:42;;;;;;;8.90;5.93;;;;;;;9.66;75.09;93810.22;5103384;28;20027;-74
2021/05/31 02:44:07;;;;;;;7.50;5.43;;;;;;;9.67;75.40;93814.47;5104300;28;20430;-74
2021/05/31 02:46:33;;;;;;;7.15;5.15;;;;;;;9.66;75.45;93810.22;5111545;28;20027;-74
2021/05/31 02:48:58;;;;;;;5.88;4.70;;;;;;;9.68;74.74;93813.34;5106876;28;20035;-74
2021/05/31 02:51:24;;;;;;;8.07;4.95;;;;;;;9.67;75.31;93806.47;5096414;28;20025;-75
2021/05/31 02:53:49;;;;;;;7.82;5.35;;;;;;;9.66;75.19;93820.09;5109842;28;20023;-74
2021/05/31 02:56:14;;;;;;;9.57;5.35;;;;;;;9.64;74.89;93807.09;5106192;28;20032;-74
2021/05/31 02:58:42;;;;;;;7.00;5.20;;;;;;;9.58;75.13;93805.66;5091187;28;20055;-74
2021/05/31 03:01:08;;;;;;;8.95;5.30;;;;;;;9.56;75.25;93811.28;5111255;28;20096;-75
2021/05/31 03:03:33;;;;;;;8.35;5.30;;;;;;;9.62;75.76;93817.25;5109946;28;20548;-74
2021/05/31 03:05:59;;;;;;;9.02;5.35;;;;;;;9.66;74.77;93812.09;5110959;28;20019;-74
2021/05/31 03:08:24;;;;;;;10.13;5.75;;;;;;;9.58;75.08;93814.41;5105050;28;20050;-74
2021/05/31 03:10:50;;;;;;;8.73;5.95;;;;;;;9.56;75.19;93818.47;5099574;28;20028;-74
2021/05/31 03:13:15;;;;;;;15.30;6.40;;;;;;;9.54;74.94;93818.00;5109569;28;20122;-74
2021/05/31 03:15:41;;;;;;;7.55;5.38;;;;;;;9.55;75.21;93807.06;5126800;27;20039;-76
2021/05/31 03:18:07;;;;;;;8.18;5.18;;;;;;;9.55;75.31;93809.72;5110800;28;20035;-75
2021/05/31 03:20:33;;;;;;;8.95;5.90;;;;;;;9.62;75.37;93810.03;5100466;28;20096;-74
2021/05/31 03:23:01;;;;;;;9.18;5.38;;;;;;;9.62;75.74;93801.28;5090335;28;20024;-74
2021/05/31 03:25:26;;;;;;;8.60;5.97;;;;;;;9.57;74.81;93801.44;5090735;28;20027;-74
2021/05/31 03:27:53;;;;;;;11.18;5.32;;;;;;;9.57;74.81;93806.75;5089155;28;20036;-74
2021/05/31 03:30:19;;;;;;;9.88;6.10;;;;;;;9.58;74.34;93801.09;5088958;28;20475;-74
2021/05/31 03:32:44;;;;;;;8.00;5.55;;;;;;;9.65;74.76;93798.03;5109301;28;20024;-74
2021/05/31 03:35:11;;;;;;;11.25;5.43;;;;;;;9.69;74.00;93792.84;5109076;28;20498;-75
2021/05/31 03:37:37;;;;;;;8.57;5.80;;;;;;;9.71;74.74;93803.97;5094991;28;20165;-74
2021/05/31 03:40:04;;;;;;;11.27;5.47;;;;;;;9.63;73.92;93797.53;5097325;28;20031;-74
2021/05/31 03:42:29;;;;;;;8.10;5.07;;;;;;;9.68;74.27;93810.69;5092318;28;20038;-75
2021/05/31 03:44:55;;;;;;;7.88;5.80;;;;;;;9.60;74.42;93817.56;5110529;28;20023;-75
2021/05/31 03:47:20;;;;;;;9.77;6.28;;;;;;;9.55;75.13;93814.28;5093365;28;20092;-75
2021/05/31 03:49:47;;;;;;;17.33;6.63;;;;;;;9.54;75.31;93812.69;5110499;28;20028;-75
2021/05/31 03:52:12;;;;;;;7.65;5.85;;;;;;;9.56;75.29;93808.63;5108533;28;20152;-75
2021/05/31 03:54:37;;;;;;;7.47;5.18;;;;;;;9.59;75.10;93820.53;5103891;28;20137;-75
2021/05/31 03:57:03;;;;;;;9.18;5.97;;;;;;;9.66;74.69;93806.78;5109327;28;20028;-75
2021/05/31 03:59:29;;;;;;;8.73;6.15;;;;;;;9.67;74.37;93806.47;5099638;28;20104;-75
2021/05/31 04:01:55;;;;;;;10.10;6.20;;;;;;;9.65;74.28;93806.00;5089201;28;20035;-75
2021/05/31 04:04:21;;;;;;;9.35;6.28;;;;;;;9.64;74.51;93812.41;5089866;28;20040;-74
2021/05/31 04:11:58;;;;;;;9.75;5.50;;;;;;;9.47;74.41;93818.44;5090298;28;20173;-75
2021/05/31 04:14:23;;;;;;;9.93;5.47;;;;;;;9.51;74.34;93810.66;5089437;28;20494;-75
2021/05/31 04:16:51;;;;;;;9.55;6.15;;;;;;;9.49;74.25;93823.47;5089973;28;20086;-75
2021/05/31 04:19:19;;;;;;;11.70;6.28;;;;;;;9.45;74.50;93820.63;5089352;28;20085;-74
2021/05/31 04:21:51;;;;;;;11.85;5.97;;;;;;;9.48;74.56;93820.00;5100087;28;20441;-74
2021/05/31 04:24:17;;;;;;;9.90;5.32;;;;;;;9.49;74.90;93808.28;5093723;28;20032;-75
2021/05/31 04:26:43;;;;;;;7.97;5.35;;;;;;;9.57;74.62;93817.41;5092379;28;20113;-75
2021/05/31 04:29:10;;;;;;;7.82;5.47;;;;;;;9.57;74.26;93820.06;5092796;28;20028;-74
2021/05/31 04:31:36;;;;;;;9.63;5.20;;;;;;;9.63;73.07;93816.19;5093715;28;20039;-74
2021/05/31 04:34:04;;;;;;;11.63;5.25;;;;;;;9.55;73.45;93809.72;5093899;28;20024;-75
2021/05/31 04:36:31;;;;;;;8.57;5.40;;;;;;;9.49;73.50;93799.53;5092447;28;20123;-75
2021/05/31 04:38:57;;;;;;;9.30;5.50;;;;;;;9.50;73.47;93809.06;5092296;28;20063;-74
2021/05/31 04:41:22;;;;;;;8.75;5.07;;;;;;;9.55;73.55;93812.38;5106376;28;20047;-75
2021/05/31 04:43:48;;;;;;;10.20;6.03;;;;;;;9.68;73.11;93813.34;5111041;28;20035;-74
2021/05/31 04:46:13;;;;;;;8.85;4.78;;;;;;;9.71;73.21;93799.44;5101320;28;20032;-75
2021/05/31 04:48:39;;;;;;;8.63;5.40;;;;;;;9.76;72.29;93804.63;5093946;28;20028;-75
2021/05/31 04:51:04;;;;;;;7.28;4.70;;;;;;;9.72;72.69;93800.22;5112195;28;20031;-74
2021/05/31 04:53:33;;;;;;;8.40;5.63;;;;;;;9.79;71.70;93804.00;5096592;28;20038;-74
2021/05/31 04:56:03;;;;;;;6.47;4.88;;;;;;;9.78;71.58;93807.75;5092910;28;20117;-75
2021/05/31 04:58:28;;;;;;;8.02;5.35;;;;;;;9.84;72.91;93801.19;5092083;28;20027;-75
2021/05/31 05:00:54;;;;;;;8.75;6.20;;;;;;;9.90;73.41;93806.41;5091682;28;20016;-74
2021/05/31 05:03:20;;;;;;;6.78;5.47;;;;;;;9.94;73.65;93807.34;5093124;28;20024;-75
2021/05/31 05:05:46;;;;;;;7.28;5.15;;;;;;;10.01;72.17;93813.78;5091718;28;20062;-75
2021/05/31 05:08:12;;;;;;;9.50;6.18;;;;;;;9.87;71.68;93805.13;5102403;28;20047;-74
2021/05/31 05:10:37;;;;;;;8.35;4.82;;;;;;;9.91;71.81;93810.59;5113230;28;20034;-74
2021/05/31 05:13:03;;;;;;;7.40;4.90;;;;;;;9.90;70.49;93804.50;5113147;28;20095;-74
2021/05/31 05:15:29;;;;;;;9.05;5.25;;;;;;;9.86;71.67;93802.78;5113341;28;20106;-75
2021/05/31 05:17:55;;;;;;;12.23;6.00;;;;;;;9.86;72.12;93802.78;5111711;28;20515;-75
2021/05/31 05:20:24;;;;;;;7.68;5.82;;;;;;;9.91;71.91;93805.28;5111797;28;20077;-74
2021/05/31 05:22:50;;;;;;;8.25;5.13;;;;;;;9.97;71.43;93817.34;5097434;28;20024;-75
2021/05/31 05:25:15;;;;;;;9.35;5.35;;;;;;;10.07;70.64;93811.75;5096283;28;20035;-75
2021/05/31 05:27:43;;;;;;;10.25;5.63;;;;;;;10.21;70.96;93823.03;5113038;28;20122;-75
2021/05/31 05:30:10;;;;;;;6.88;5.40;;;;;;;10.29;71.48;93820.72;5113023;28;20028;-75
2021/05/31 05:32:36;;;;;;;9.57;4.80;;;;;;;10.29;70.08;93818.06;5098305;28;20456;-75
2021/05/31 05:35:22;;;;;;;7.47;4.82;;;;;;;10.32;69.27;93820.09;5091165;28;20093;-75
2021/05/31 05:48:15;;;;;;;11.93;6.78;;;;;;;10.52;70.50;93827.53;5102741;28;20422;-74
2021/05/31 05:50:41;;;;;;;8.10;5.30;;;;;;;10.41;69.90;93832.34;5092709;28;20148;-74
2021/05/31 05:53:06;;;;;;;12.00;5.95;;;;;;;10.46;70.43;93826.06;5091876;28;20055;-74
2021/05/31 05:55:32;;;;;;;8.10;5.10;;;;;;;10.43;69.39;93819.50;5111262;28;20027;-74
2021/05/31 05:57:58;;;;;;;8.38;5.72;;;;;;;10.47;69.46;93822.34;5111023;28;20110;-75
2021/05/31 06:00:25;;;;;;;9.25;6.20;;;;;;;10.44;69.74;93831.75;5104971;28;20032;-74
2021/05/31 06:02:52;;;;;;;9.10;5.13;;;;;;;10.41;70.45;93828.91;5111156;28;20032;-73
2021/05/31 06:05:18;;;;;;;7.50;5.10;;;;;;;10.46;69.48;93820.75;5108349;28;21079;-72
2021/05/31 06:07:43;;;;;;;11.88;5.25;;;;;;;10.58;69.76;93826.28;5119844;27;20082;-76
2021/05/31 06:10:09;;;;;;;7.28;5.30;;;;;;;10.67;69.98;93817.50;5109246;28;20047;-76
2021/05/31 06:12:35;;;;;;;9.43;5.22;;;;;;;10.69;68.53;93813.41;5108762;28;20020;-77
2021/05/31 06:15:01;;;;;;;10.80;4.80;;;;;;;10.76;67.95;93813.69;5102432;28;20034;-77
2021/05/31 06:17:26;;;;;;;8.90;5.53;;;;;;;10.94;69.75;93811.81;5094789;28;20020;-77
2021/05/31 06:19:59;;;;;;;9.00;4.88;;;;;;;11.06;68.86;93815.72;5112054;28;20024;-78
2021/05/31 06:22:25;;;;;;;7.45;4.60;;;;;;;11.00;66.35;93815.88;5103574;28;20094;-77
2021/05/31 06:24:50;;;;;;;8.18;5.15;;;;;;;10.95;67.83;93800.06;5104541;28;20055;-77
2021/05/31 06:27:16;;;;;;;7.78;4.78;;;;;;;11.07;68.90;93809.28;5110317;28;20023;-77
2021/05/31 06:29:41;;;;;;;9.02;5.47;;;;;;;11.14;68.22;93799.69;5101526;28;20032;-77
2021/05/31 06:32:07;;;;;;;7.18;4.90;;;;;;;11.14;67.93;93797.03;5108316;28;20451;-80
2021/05/31 06:34:32;;;;;;;11.27;5.53;;;;;;;11.11;66.43;93808.31;5107963;28;20023;-74
2021/05/31 06:36:57;;;;;;;10.35;4.97;;;;;;;11.16;67.32;93800.16;5101052;28;20091;-79
2021/05/31 06:39:23;;;;;;;9.85;4.82;;;;;;;11.23;66.12;93800.47;5120146;27;20020;-78
2021/05/31 06:41:49;;;;;;;10.57;3.92;;;;;;;11.38;65.61;93796.50;5104898;28;20552;-78
2021/05/31 06:44:15;;;;;;;15.40;5.10;;;;;;;11.47;65.68;93793.00;5103290;28;20160;-77
2021/05/31 06:46:40;;;;;;;11.68;4.13;;;;;;;11.61;65.92;93793.59;5117268;28;20054;-80
2021/05/31 06:49:07;;;;;;;7.22;4.20;;;;;;;11.58;64.30;93789.69;5111901;28;20028;-79
2021/05/31 06:51:32;;;;;;;8.80;4.25;;;;;;;11.64;65.35;93801.75;5105487;28;20449;-77
2021/05/31 06:53:58;;;;;;;7.18;4.43;;;;;;;11.83;65.74;93803.22;5103450;28;20123;-78
2021/05/31 06:56:23;;;;;;;10.18;4.25;;;;;;;11.88;65.01;93792.34;5102256;28;20032;-77
2021/05/31 06:58:50;;;;;;;9.32;4.15;;;;;;;12.04;64.98;93795.28;5096755;28;20035;-77
2021/05/31 07:01:15;;;;;;;9.25;4.00;;;;;;;12.29;64.12;93803.47;5105106;28;20096;-78
2021/05/31 07:03:42;;;;;;;8.50;3.95;;;;;;;12.30;62.37;93808.50;5111914;28;20019;-79
2021/05/31 07:06:07;;;;;;;5.35;3.90;;;;;;;12.21;61.59;93808.56;5107200;28;20019;-77
2021/05/31 07:08:32;;;;;;;7.50;4.47;;;;;;;12.22;61.29;93807.44;5096834;28;21482;-77
2021/05/31 07:11:02;;;;;;;10.63;4.25;;;;;;;12.25;62.46;93800.66;5098867;28;20089;-77
2021/05/31 07:13:29;;;;;;;9.15;4.57;;;;;;;12.38;62.21;93796.19;5101843;28;20032;-77
2021/05/31 07:15:56;;;;;;;9.68;4.35;;;;;;;12.44;61.79;93797.56;5109107;28;20028;-77
2021/05/31 07:18:21;;;;;;;9.73;4.20;;;;;;;12.41;61.64;93793.63;5108190;28;20057;-76
2021/05/31 07:20:48;;;;;;;11.60;4.40;;;;;;;12.49;63.27;93804.59;5104037;28;20035;-79
2021/05/31 07:23:15;;;;;;;10.50;4.03;;;;;;;12.40;60.91;93788.63;5112797;27;20020;-78
2021/05/31 07:25:41;;;;;;;9.25;5.07;;;;;;;12.23;60.85;93797.50;5101453;28;20031;-79
2021/05/31 07:28:06;;;;;;;8.82;4.40;;;;;;;12.15;63.48;93785.81;5102440;28;20035;-81
2021/05/31 07:30:32;;;;;;;10.32;4.70;;;;;;;12.19;62.90;93794.72;5101995;28;20490;-81
2021/05/31 07:32:58;;;;;;;7.47;4.10;;;;;;;12.30;61.86;93794.34;5107648;28;20023;-77
2021/05/31 07:35:23;;;;;;;8.50;3.80;;;;;;;12.40;62.99;93793.97;5101327;28;20395;-77
2021/05/31 07:37:49;;;;;;;9.35;3.53;;;;;;;12.50;61.46;93793.56;5101664;28;20036;-77
2021/05/31 07:40:16;;;;;;;3.80;2.80;;;;;;;12.69;59.09;93800.34;5118868;27;20123;-79
2021/05/31 07:42:43;;;;;;;3.63;2.58;;;;;;;12.80;59.70;93788.13;5099136;28;20026;-76
2021/05/31 07:45:09;;;;;;;6.03;3.22;;;;;;;12.99;59.03;93793.78;5108067;28;20019;-76
2021/05/31 07:47:35;;;;;;;5.80;3.97;;;;;;;12.96;59.08;93786.41;5107042;28;20074;-79
2021/05/31 07:50:01;;;;;;;6.57;4.25;;;;;;;13.14;60.75;93775.53;5099475;28;20024;-79
2021/05/31 07:52:28;;;;;;;6.45;4.20;;;;;;;13.41;60.31;93785.69;5106310;28;20020;-77
2021/05/31 07:54:55;;;;;;;8.40;3.83;;;;;;;13.42;58.57;93787.22;5099244;28;20015;-78
2021/05/31 07:57:23;;;;;;;6.30;3.60;;;;;;;13.50;58.04;93776.75;5107518;27;20053;-76
2021/05/31 07:59:51;;;;;;;9.02;3.85;;;;;;;13.58;57.67;93768.63;5107860;28;20016;-78
2021/05/31 08:02:16;;;;;;;11.10;4.18;;;;;;;13.59;57.42;93774.75;5102401;28;20502;-78
2021/05/31 08:04:42;;;;;;;8.65;3.95;;;;;;;13.54;56.41;93766.94;5111155;28;20015;-77
2021/05/31 08:07:11;;;;;;;11.63;3.97;;;;;;;13.53;57.64;93776.09;5106793;28;20047;-78
2021/05/31 08:09:38;;;;;;;5.32;3.10;;;;;;;13.44;56.88;93768.94;5103302;27;20118;-78
2021/05/31 08:12:04;;;;;;;7.72;3.05;;;;;;;13.55;57.65;93771.94;5100631;28;20126;-78
2021/05/31 08:14:29;;;;;;;4.10;3.13;;;;;;;13.65;57.40;93773.41;5103797;28;20028;-77
2021/05/31 08:16:55;;;;;;;7.53;3.13;;;;;;;13.63;56.99;93779.09;5103811;28;20509;-77
2021/05/31 08:19:21;;;;;;;4.65;3.05;;;;;;;13.70;54.77;93773.22;5122561;27;20410;-80
2021/05/31 08:21:48;;;;;;;7.05;2.78;;;;;;;13.74;55.43;93775.97;5114075;28;20032;-79
2021/05/31 08:24:14;;;;;;;4.80;3.40;;;;;;;13.78;55.54;93772.31;5110765;27;20525;-78
2021/05/31 08:26:41;;;;;;;5.10;3.42;;;;;;;13.91;55.08;93764.28;5116490;27;20088;-80
2021/05/31 08:29:07;;;;;;;6.15;2.70;;;;;;;14.06;55.55;93766.25;5106602;28;20110;-79
2021/05/31 08:31:32;;;;;;;4.50;2.60;;;;;;;13.99;54.90;93769.50;5115121;28;20118;-78
2021/05/31 08:33:58;;;;;;;8.77;2.88;;;;;;;13.93;55.02;93772.75;5108349;28;20031;-83
2021/05/31 08:36:24;;;;;;;4.97;3.15;;;;;;;13.85;54.74;93790.50;5113431;28;20073;-81
2021/05/31 08:38:52;;;;;;;4.97;3.17;;;;;;;14.06;56.24;93771.63;5113286;27;20027;-81
2021/05/31 08:41:18;;;;;;;4.00;2.97;;;;;;;14.10;55.88;93764.47;5094783;28;20048;-80
2021/05/31 08:43:43;;;;;;;5.80;3.30;;;;;;;14.17;55.27;93761.25;5101810;28;20451;-76
2021/05/31 08:46:09;;;;;;;12.88;3.10;;;;;;;14.04;53.54;93757.78;5114876;28;20114;-76
2021/05/31 08:48:36;;;;;;;4.32;2.95;;;;;;;14.02;54.92;93760.00;5113874;28;20062;-75
2021/05/31 08:51:02;;;;;;;5.47;2.70;;;;;;;14.14;54.28;93765.34;5112231;27;20077;-75
2021/05/31 08:53:28;;;;;;;8.85;3.13;;;;;;;14.15;54.21;93771.53;5095846;28;20099;-71
2021/05/31 08:55:53;;;;;;;4.72;2.80;;;;;;;14.24;53.61;93767.56;5101971;28;20023;-74
2021/05/31 08:58:19;;;;;;;3.35;2.65;;;;;;;14.25;54.46;93763.00;5095773;28;20406;-74
2021/05/31 09:00:44;;;;;;;8.30;2.40;;;;;;;14.36;54.76;93757.97;5115200;28;20502;-77
2021/05/31 09:03:10;;;;;;;3.50;2.50;;;;;;;14.47;53.76;93759.06;5115488;28;20483;-76
2021/05/31 09:05:44;;;;;;;3.88;2.88;;;;;;;14.34;51.93;93760.19;5111660;28;20040;-74
2021/05/31 09:08:13;;;;;;;4.88;2.53;;;;;;;14.23;52.67;93751.84;5092851;28;20119;-74
2021/05/31 09:10:46;;;;;;;4.13;2.65;;;;;;;14.33;52.79;93758.63;5095716;28;20118;-74
2021/05/31 09:13:24;;;;;;;5.88;2.60;;;;;;;14.42;51.82;93759.28;5110054;28;20032;-74
2021/05/31 09:16:02;;;;;;;10.05;2.65;;;;;;;14.39;51.60;93755.38;5092923;28;20020;-72
2021/05/31 09:18:28;;;;;;;3.58;2.40;;;;;;;14.47;51.76;93759.06;5106055;28;20027;-75
2021/05/31 09:20:53;;;;;;;6.38;2.50;;;;;;;14.49;52.18;93756.81;5110520;28;20027;-74
2021/05/31 09:23:18;;;;;;;4.28;2.80;;;;;;;14.73;51.51;93755.19;5098613;28;20503;-74
2021/05/31 09:25:44;;;;;;;5.07;2.45;;;;;;;14.56;51.97;93765.09;5101339;28;20057;-75
2021/05/31 09:28:13;;;;;;;5.65;2.75;;;;;;;14.61;51.65;93756.00;5096964;28;20536;-75
2021/05/31 09:30:44;;;;;;;5.40;2.85;;;;;;;14.54;49.76;93753.09;5096747;28;20054;-75
2021/05/31 09:33:14;;;;;;;3.90;2.80;;;;;;;14.64;50.49;93756.13;5108055;28;20028;-75
2021/05/31 09:35:42;;;;;;;4.05;2.33;;;;;;;14.68;50.24;93753.53;5110211;28;20026;-75
2021/05/31 09:38:07;;;;;;;5.03;2.38;;;;;;;14.82;49.70;93748.56;5105645;28;20031;-75
2021/05/31 09:40:33;;;;;;;3.60;2.00;;;;;;;14.99;49.24;93739.41;5110940;28;20394;-75
2021/05/31 09:43:01;;;;;;;5.05;2.60;;;;;;;15.17;49.83;93741.78;5112647;28;20470;-75
2021/05/31 09:45:30;;;;;;;4.88;2.20;;;;;;;15.29;47.66;93739.03;5099817;28;20031;-75
2021/05/31 09:48:03;;;;;;;4.38;2.47;;;;;;;15.20;47.27;93747.25;5096921;28;20020;-75
2021/05/31 09:50:32;;;;;;;2.53;1.80;;;;;;;15.28;46.48;93745.53;5091999;28;20034;-75
2021/05/31 09:53:10;;;;;;;3.63;2.00;;;;;;;15.31;47.59;93736.78;5094322;28;20030;-75
2021/05/31 09:55:40;;;;;;;3.47;2.38;;;;;;;15.17;48.12;93736.44;5106167;28;20518;-75
2021/05/31 09:58:11;;;;;;;4.00;2.30;;;;;;;15.28;49.08;93737.47;5101732;28;20106;-75
2021/05/31 10:00:38;;;;;;;3.22;1.90;;;;;;;15.21;49.62;93716.59;5096625;28;20130;-75
2021/05/31 10:03:34;;;;;;;3.97;2.10;;;;;;;15.25;48.05;93724.75;5101304;28;20097;-72
2021/05/31 10:06:23;;;;;;;3.33;2.35;;;;;;;15.44;49.70;93734.78;5106413;28;20008;-73
2021/05/31 10:08:48;;;;;;;5.43;2.17;;;;;;;15.59;48.57;93728.66;5103011;28;20044;-71
2021/05/31 10:11:14;;;;;;;4.22;2.05;;;;;;;15.64;47.27;93711.47;5095550;28;20117;-72
2021/05/31 10:13:41;;;;;;;3.35;1.80;;;;;;;15.76;48.13;93714.09;5098264;28;20101;-73
2021/05/31 10:16:08;;;;;;;4.35;2.35;;;;;;;15.63;46.92;93707.22;5108467;28;20118;-73
2021/05/31 10:18:39;;;;;;;6.45;2.38;;;;;;;15.29;44.63;93719.47;5111014;28;20023;-73
2021/05/31 10:21:05;;;;;;;4.78;1.88;;;;;;;15.15;44.90;93712.59;5106061;28;20020;-73
2021/05/31 10:23:32;;;;;;;9.77;2.25;;;;;;;15.30;46.56;93702.22;5111568;28;20403;-71
2021/05/31 10:26:03;;;;;;;6.28;2.03;;;;;;;15.30;44.41;93710.28;5111388;28;20126;-72
2021/05/31 10:28:36;;;;;;;3.05;2.00;;;;;;;15.41;46.15;93705.97;5101618;28;20026;-74
2021/05/31 10:31:04;;;;;;;3.53;2.10;;;;;;;15.44;45.76;93714.06;5098805;28;20027;-72
2021/05/31 10:33:30;;;;;;;3.85;1.88;;;;;;;15.60;45.00;93699.88;5099404;28;20038;-72
2021/05/31 10:36:08;;;;;;;3.35;1.75;;;;;;;15.78;44.59;93705.69;5095483;28;20077;-72
2021/05/31 10:38:37;;;;;;;6.93;2.10;;;;;;;15.80;45.42;93692.69;5090472;28;20054;-72
2021/05/31 10:41:12;;;;;;;4.20;1.70;;;;;;;15.82;43.99;93696.56;5097706;28;20043;-72
2021/05/31 10:43:51;;;;;;;8.27;1.60;;;;;;;15.98;43.15;93690.41;5102481;28;20479;-72
2021/05/31 10:46:30;;;;;;;4.53;1.52;;;;;;;16.11;44.09;93689.13;5094880;28;20020;-72
2021/05/31 10:48:57;;;;;;;3.35;1.70;;;;;;;16.05;44.17;93688.63;5093112;27;20376;-72
2021/05/31 10:51:26;;;;;;;3.53;2.00;;;;;;;16.13;43.15;93686.09;5090528;28;20028;-73
2021/05/31 10:53:53;;;;;;;2.70;1.70;;;;;;;16.27;45.04;93689.09;5090680;28;20040;-72
2021/05/31 10:56:18;;;;;;;2.45;1.50;;;;;;;16.40;42.85;93665.50;5101857;28;20038;-74
2021/05/31 10:58:49;;;;;;;2.13;1.48;;;;;;;16.37;42.92;93677.78;5093677;28;21020;-73
2021/05/31 11:01:41;;;;;;;6.90;1.63;;;;;;;16.27;42.16;93666.81;5100324;28;20085;-72
2021/05/31 11:04:20;;;;;;;5.32;1.52;;;;;;;16.19;42.57;93677.41;5087303;28;20085;-72
2021/05/31 11:06:47;;;;;;;4.63;1.90;;;;;;;16.29;42.15;93672.59;5097249;28;20441;-73
2021/05/31 11:09:23;;;;;;;2.20;1.50;;;;;;;16.40;42.05;93665.50;5109194;28;20032;-73
2021/05/31 11:11:53;;;;;;;6.60;1.60;;;;;;;16.49;42.41;93671.47;5095747;28;20023;-73
2021/05/31 11:14:39;;;;;;;4.75;1.50;;;;;;;16.47;43.08;93660.28;5101931;28;20081;-72
2021/05/31 11:17:16;;;;;;;3.97;1.77;;;;;;;16.45;42.63;93671.41;5097345;28;20092;-72
2021/05/31 11:19:50;;;;;;;5.15;1.58;;;;;;;16.35;42.45;93663.91;5090293;28;20026;-71
2021/05/31 11:22:22;;;;;;;4.72;1.58;;;;;;;16.40;42.28;93662.81;5094026;28;20035;-73
2021/05/31 11:24:49;;;;;;;3.42;1.40;;;;;;;16.30;42.78;93658.00;5104355;28;20564;-72
2021/05/31 11:27:14;;;;;;;4.15;1.75;;;;;;;16.35;43.04;93657.75;5094811;28;20317;-72
2021/05/31 11:29:40;;;;;;;4.30;1.55;;;;;;;16.41;43.74;93662.47;5098031;28;20034;-71
2021/05/31 11:32:06;;;;;;;7.15;1.50;;;;;;;16.57;43.10;93662.41;5089693;28;20031;-74
2021/05/31 11:34:32;;;;;;;4.05;1.55;;;;;;;16.40;41.68;93655.53;5090285;28;20046;-73
2021/05/31 11:36:59;;;;;;;6.68;1.65;;;;;;;16.42;42.23;93652.50;5090608;28;20027;-72
2021/05/31 11:39:32;;;;;;;4.20;1.80;;;;;;;16.32;41.88;93658.44;5097913;28;20028;-73
2021/05/31 11:41:57;;;;;;;7.93;1.30;;;;;;;16.15;42.81;93660.41;5099610;28;20036;-73
2021/05/31 11:44:28;;;;;;;4.72;1.60;;;;;;;16.19;44.24;93657.81;5097087;28;20521;-72
2021/05/31 11:46:56;;;;;;;3.72;1.92;;;;;;;16.25;44.63;93645.63;5092484;28;20028;-73
2021/05/31 11:49:26;;;;;;;2.55;1.30;;;;;;;16.16;44.12;93662.00;5096690;28;20492;-72
2021/05/31 11:52:12;;;;;;;4.53;1.75;;;;;;;15.98;45.21;93668.91;5103721;28;20509;-73
2021/05/31 11:54:39;;;;;;;2.80;1.33;;;;;;;15.67;47.08;93667.78;5104763;28;20062;-73